Buoy 13570

sailwx.info

Track history (hours):
 
Tides and Currents Weather Stations Pressure Air Temp Water Temp Dewpoint Dewpoint Depression Visibility Wind Speed Wind Dir Waves Ship Positions

Drifting buoy 13570

Last reported at 2014-Sep-30 23:00 UTC. Time now 2014-Sep-30 23:59 UTC.
Position N 35°02' W 029°54'.

Barometer 1022.0 mb
Water temperature 23.8 ° C

Date/timePositionNaut miles runAvg speedWind from/ knotsBaromVisibWave heightAir tempDewpointWater temp
2014-Sep-30 23:00N 35°02' W 029°54'1 0.7 1022.0 23.8
2014-Sep-30 22:00N 35°02' W 029°54'0 0.0 1021.7 23.8
2014-Sep-30 21:00N 35°02' W 029°54'1 0.5 1021.5 23.8
2014-Sep-30 19:00N 35°01' W 029°55'0 0.0 1021.1 23.8
2014-Sep-30 18:00N 35°01' W 029°55'1 0.5 1021.1 23.8
2014-Sep-30 15:00N 35°00' W 029°54'1 0.9 1021.7 23.8
2014-Sep-30 14:00N 34°60' W 029°54'0 0.5 1022.2 23.8
2014-Sep-30 13:00N 35°00' W 029°54'1 0.5 1022.1 23.8
2014-Sep-30 10:00N 35°01' W 029°55'0 0.0 1022.1 23.8
2014-Sep-30 09:00N 35°01' W 029°55'0 0.5 1021.7 23.8
2014-Sep-30 08:00N 35°01' W 029°55'0 0.5 1021.1 23.8
2014-Sep-30 07:00N 35°01' W 029°55'1 1.1 1020.8 23.8
2014-Sep-30 06:00N 35°01' W 029°56'0 0.0 1020.6 23.8
2014-Sep-30 05:00N 35°01' W 029°56'3 3.2 1020.6 23.8
2014-Sep-30 04:00N 34°57' W 029°56'0 0.0 1020.3 23.8
2014-Sep-30 00:00N 34°57' W 029°56'0 0.5 1020.2 23.9
2014-Sep-29 23:00N 34°58' W 029°56'1 0.8 1020.4 23.9
2014-Sep-29 22:00N 34°59' W 029°56'0 0.0 1020.3 23.9
2014-Sep-29 21:00N 34°59' W 029°56'1 1.3 1019.8 23.9
2014-Sep-29 20:00N 34°59' W 029°58'1 1.0 1019.4 23.9
2014-Sep-29 19:00N 34°58' W 029°58'1 1.1 1018.9 23.9
2014-Sep-29 18:00N 34°57' W 029°58'1 0.2 1018.8 24.0
2014-Sep-29 15:00N 34°56' W 029°59'0 0.1 1018.8 23.9
2014-Sep-29 14:00N 34°56' W 029°59'0 0.2 1020.0 24.0
2014-Sep-29 12:00N 34°56' W 029°59'1 0.6 1019.9 23.9
2014-Sep-29 11:00N 34°56' W 029°59'0 0.5 1019.6 23.8
2014-Sep-29 10:00N 34°56' W 029°60'1 0.8 1019.0 23.8
2014-Sep-29 09:00N 34°55' W 029°60'0 0.5 1018.8 23.8
2014-Sep-29 08:00N 34°55' W 029°60'1 0.5 1018.6 23.8
2014-Sep-29 07:00N 34°55' W 030°01'2 1.8 1018.0 23.7
2014-Sep-29 06:00N 34°53' W 030°02'2 1.1 1017.7 23.7
2014-Sep-29 04:00N 34°51' W 030°00'0 0.0 1018.1 23.8
2014-Sep-29 02:00N 34°51' W 030°00'0 0.0 1019.1 23.8
2014-Sep-29 01:00N 34°51' W 030°00'0 0.0 1019.6 23.8
2014-Sep-29 00:00N 34°51' W 030°00'2 0.8 1019.9 23.8
2014-Sep-28 22:00N 34°50' W 030°00'1 0.4 1020.2 23.8
2014-Sep-28 20:00N 34°49' W 029°60'0 0.0 1019.7 23.8
2014-Sep-28 19:00N 34°49' W 029°60'1 1.3 1019.4 23.9
2014-Sep-28 18:00N 34°48' W 030°01'0 0.0 1019.4 23.9
2014-Sep-28 17:00N 34°48' W 030°01'1 0.7 1019.4 23.9
2014-Sep-28 16:00N 34°48' W 030°00'1 0.6 1019.9 23.9
2014-Sep-28 14:00N 34°47' W 030°01'1 0.3 1021.2 23.9
2014-Sep-28 11:00N 34°46' W 030°01'0 0.3 1022.0 23.8
2014-Sep-28 10:00N 34°46' W 030°01'1 0.3 1021.9 23.8
2014-Sep-28 08:00N 34°45' W 030°01'0 0.4 1021.0 23.8
2014-Sep-28 07:00N 34°45' W 030°01'1 1.3 1020.8 23.8
2014-Sep-28 06:00N 34°44' W 030°02'0 0.0 1020.8 23.9
2014-Sep-28 05:00N 34°44' W 030°02'0 0.4 1020.8 23.9
2014-Sep-28 04:00N 34°44' W 030°01'1 1.1 1021.1 23.9
2014-Sep-28 03:00N 34°43' W 030°01'3 0.7 1021.5 23.9
2014-Sep-27 23:00N 34°41' W 029°59'0 0.0 1023.0 24.2
2014-Sep-27 22:00N 34°41' W 029°59'1 1.2 1022.8 24.2
2014-Sep-27 21:00N 34°42' W 029°58'0 0.0 1022.2 24.2
2014-Sep-27 20:00N 34°42' W 029°58'0 0.4 1021.7 24.3
2014-Sep-27 19:00N 34°42' W 029°58'1 1.0 1021.4 24.4
2014-Sep-27 18:00N 34°41' W 029°59'0 0.3 1021.4 24.6
2014-Sep-27 17:00N 34°41' W 029°59'2 0.6 1021.3 24.6
2014-Sep-27 14:00N 34°39' W 029°60'2 0.7 1022.0 24.3
2014-Sep-27 11:00N 34°38' W 029°59'1 0.4 1022.1 23.9
2014-Sep-27 09:00N 34°37' W 029°59'0 0.0 1021.3 23.9
2014-Sep-27 08:00N 34°37' W 029°59'0 0.0 1021.1 23.9
2014-Sep-27 07:00N 34°37' W 029°59'0 0.4 1021.1 23.9
2014-Sep-27 06:00N 34°37' W 029°58'1 0.7 1020.7 23.9
2014-Sep-27 05:00N 34°36' W 029°58'0 0.0 1020.6 23.9
2014-Sep-27 04:00N 34°36' W 029°58'1 1.0 1020.8 23.9
2014-Sep-27 03:00N 34°35' W 029°57'0 0.1 1021.0 23.9
2014-Sep-27 02:00N 34°35' W 029°58'3 0.5 1021.3 23.9
2014-Sep-26 21:00N 34°33' W 029°55'0 0.2 1021.6 24.0
2014-Sep-26 19:00N 34°33' W 029°56'1 0.7 1021.0 24.2
2014-Sep-26 18:00N 34°33' W 029°56'1 0.3 1020.9 24.2
2014-Sep-26 16:00N 34°33' W 029°56'1 0.5 1021.4 24.2
2014-Sep-26 13:00N 34°32' W 029°56'0 0.3 1022.2 24.0
2014-Sep-26 12:00N 34°32' W 029°56'1 1.3 1022.5 23.9
2014-Sep-26 11:00N 34°30' W 029°55'2 0.8 1022.4 23.9
2014-Sep-26 08:00N 34°28' W 029°54'0 0.4 1021.7 23.8
2014-Sep-26 07:00N 34°28' W 029°54'0 0.5 1021.4 23.9
2014-Sep-26 06:00N 34°28' W 029°53'0 0.1 1021.2 23.8
2014-Sep-26 05:00N 34°28' W 029°53'1 0.2 1021.0 23.9
2014-Sep-25 23:00N 34°28' W 029°51'1 0.9 1022.6 23.9
2014-Sep-25 22:00N 34°28' W 029°53'3 1.3 1022.4 23.9
2014-Sep-25 20:00N 34°26' W 029°52'0 0.1 1021.6 23.9
2014-Sep-25 18:00N 34°26' W 029°52'2 0.8 1021.2 24.0
2014-Sep-25 16:00N 34°24' W 029°51'1 1.3 1021.7 24.0
2014-Sep-25 15:00N 34°24' W 029°50'1 0.2 1022.0 24.0
2014-Sep-25 12:00N 34°23' W 029°49'1 0.6 1023.5 23.9
2014-Sep-25 11:00N 34°23' W 029°49'1 0.9 1023.4 23.9
2014-Sep-25 10:00N 34°23' W 029°48'1 0.3 1023.2 23.9
2014-Sep-25 07:00N 34°22' W 029°47'1 0.9 1022.2 23.9
2014-Sep-25 06:00N 34°22' W 029°46'0 0.4 1022.6 23.9
2014-Sep-25 05:00N 34°21' W 029°46'2 0.4 1022.8 23.9
2014-Sep-24 23:00N 34°22' W 029°44'1 0.9 1025.3 23.9
2014-Sep-24 22:00N 34°22' W 029°45'1 0.6 1025.3 23.9
2014-Sep-24 20:00N 34°21' W 029°44'0 0.1 1024.5 23.9
2014-Sep-24 19:00N 34°21' W 029°44'2 0.9 1024.4 23.9
2014-Sep-24 17:00N 34°19' W 029°43'   1024.7 24.0
Track history (hours):
 
Tides and Currents Weather Stations Pressure Air Temp Water Temp Dewpoint Dewpoint Depression Visibility Wind Speed Wind Dir Waves Ship Positions

Drifting buoy 13570

Last reported at 2014-Sep-30 23:00 UTC. Time now 2014-Sep-30 23:59 UTC.
Position N 35°02' W 029°54'.

Barometer 1022.0 mb
Water temperature 23.8 ° C

Date/timePositionNaut miles runAvg speedWind from/ knotsBaromVisibWave heightAir tempDewpointWater temp
2014-Sep-30 23:00N 35°02' W 029°54'1 0.7 1022.0 23.8
2014-Sep-30 22:00N 35°02' W 029°54'0 0.0 1021.7 23.8
2014-Sep-30 21:00N 35°02' W 029°54'1 0.5 1021.5 23.8
2014-Sep-30 19:00N 35°01' W 029°55'0 0.0 1021.1 23.8
2014-Sep-30 18:00N 35°01' W 029°55'1 0.5 1021.1 23.8
2014-Sep-30 15:00N 35°00' W 029°54'1 0.9 1021.7 23.8
2014-Sep-30 14:00N 34°60' W 029°54'0 0.5 1022.2 23.8
2014-Sep-30 13:00N 35°00' W 029°54'1 0.5 1022.1 23.8
2014-Sep-30 10:00N 35°01' W 029°55'0 0.0 1022.1 23.8
2014-Sep-30 09:00N 35°01' W 029°55'0 0.5 1021.7 23.8
2014-Sep-30 08:00N 35°01' W 029°55'0 0.5 1021.1 23.8
2014-Sep-30 07:00N 35°01' W 029°55'1 1.1 1020.8 23.8
2014-Sep-30 06:00N 35°01' W 029°56'0 0.0 1020.6 23.8
2014-Sep-30 05:00N 35°01' W 029°56'3 3.2 1020.6 23.8
2014-Sep-30 04:00N 34°57' W 029°56'0 0.0 1020.3 23.8
2014-Sep-30 00:00N 34°57' W 029°56'0 0.5 1020.2 23.9
2014-Sep-29 23:00N 34°58' W 029°56'1 0.8 1020.4 23.9
2014-Sep-29 22:00N 34°59' W 029°56'0 0.0 1020.3 23.9
2014-Sep-29 21:00N 34°59' W 029°56'1 1.3 1019.8 23.9
2014-Sep-29 20:00N 34°59' W 029°58'1 1.0 1019.4 23.9
2014-Sep-29 19:00N 34°58' W 029°58'1 1.1 1018.9 23.9
2014-Sep-29 18:00N 34°57' W 029°58'1 0.2 1018.8 24.0
2014-Sep-29 15:00N 34°56' W 029°59'0 0.1 1018.8 23.9
2014-Sep-29 14:00N 34°56' W 029°59'0 0.2 1020.0 24.0
2014-Sep-29 12:00N 34°56' W 029°59'1 0.6 1019.9 23.9
2014-Sep-29 11:00N 34°56' W 029°59'0 0.5 1019.6 23.8
2014-Sep-29 10:00N 34°56' W 029°60'1 0.8 1019.0 23.8
2014-Sep-29 09:00N 34°55' W 029°60'0 0.5 1018.8 23.8
2014-Sep-29 08:00N 34°55' W 029°60'1 0.5 1018.6 23.8
2014-Sep-29 07:00N 34°55' W 030°01'2 1.8 1018.0 23.7
2014-Sep-29 06:00N 34°53' W 030°02'2 1.1 1017.7 23.7
2014-Sep-29 04:00N 34°51' W 030°00'0 0.0 1018.1 23.8
2014-Sep-29 02:00N 34°51' W 030°00'0 0.0 1019.1 23.8
2014-Sep-29 01:00N 34°51' W 030°00'0 0.0 1019.6 23.8
2014-Sep-29 00:00N 34°51' W 030°00'2 0.8 1019.9 23.8
2014-Sep-28 22:00N 34°50' W 030°00'1 0.4 1020.2 23.8
2014-Sep-28 20:00N 34°49' W 029°60'0 0.0 1019.7 23.8
2014-Sep-28 19:00N 34°49' W 029°60'1 1.3 1019.4 23.9
2014-Sep-28 18:00N 34°48' W 030°01'0 0.0 1019.4 23.9
2014-Sep-28 17:00N 34°48' W 030°01'1 0.7 1019.4 23.9
2014-Sep-28 16:00N 34°48' W 030°00'1 0.6 1019.9 23.9
2014-Sep-28 14:00N 34°47' W 030°01'1 0.3 1021.2 23.9
2014-Sep-28 11:00N 34°46' W 030°01'0 0.3 1022.0 23.8
2014-Sep-28 10:00N 34°46' W 030°01'1 0.3 1021.9 23.8
2014-Sep-28 08:00N 34°45' W 030°01'0 0.4 1021.0 23.8
2014-Sep-28 07:00N 34°45' W 030°01'1 1.3 1020.8 23.8
2014-Sep-28 06:00N 34°44' W 030°02'0 0.0 1020.8 23.9
2014-Sep-28 05:00N 34°44' W 030°02'0 0.4 1020.8 23.9
2014-Sep-28 04:00N 34°44' W 030°01'1 1.1 1021.1 23.9
2014-Sep-28 03:00N 34°43' W 030°01'3 0.7 1021.5 23.9
2014-Sep-27 23:00N 34°41' W 029°59'0 0.0 1023.0 24.2
2014-Sep-27 22:00N 34°41' W 029°59'1 1.2 1022.8 24.2
2014-Sep-27 21:00N 34°42' W 029°58'0 0.0 1022.2 24.2
2014-Sep-27 20:00N 34°42' W 029°58'0 0.4 1021.7 24.3
2014-Sep-27 19:00N 34°42' W 029°58'1 1.0 1021.4 24.4
2014-Sep-27 18:00N 34°41' W 029°59'0 0.3 1021.4 24.6
2014-Sep-27 17:00N 34°41' W 029°59'2 0.6 1021.3 24.6
2014-Sep-27 14:00N 34°39' W 029°60'2 0.7 1022.0 24.3
2014-Sep-27 11:00N 34°38' W 029°59'1 0.4 1022.1 23.9
2014-Sep-27 09:00N 34°37' W 029°59'0 0.0 1021.3 23.9
2014-Sep-27 08:00N 34°37' W 029°59'0 0.0 1021.1 23.9
2014-Sep-27 07:00N 34°37' W 029°59'0 0.4 1021.1 23.9
2014-Sep-27 06:00N 34°37' W 029°58'1 0.7 1020.7 23.9
2014-Sep-27 05:00N 34°36' W 029°58'0 0.0 1020.6 23.9
2014-Sep-27 04:00N 34°36' W 029°58'1 1.0 1020.8 23.9
2014-Sep-27 03:00N 34°35' W 029°57'0 0.1 1021.0 23.9
2014-Sep-27 02:00N 34°35' W 029°58'3 0.5 1021.3 23.9
2014-Sep-26 21:00N 34°33' W 029°55'0 0.2 1021.6 24.0
2014-Sep-26 19:00N 34°33' W 029°56'1 0.7 1021.0 24.2
2014-Sep-26 18:00N 34°33' W 029°56'1 0.3 1020.9 24.2
2014-Sep-26 16:00N 34°33' W 029°56'1 0.5 1021.4 24.2
2014-Sep-26 13:00N 34°32' W 029°56'0 0.3 1022.2 24.0
2014-Sep-26 12:00N 34°32' W 029°56'1 1.3 1022.5 23.9
2014-Sep-26 11:00N 34°30' W 029°55'2 0.8 1022.4 23.9
2014-Sep-26 08:00N 34°28' W 029°54'0 0.4 1021.7 23.8
2014-Sep-26 07:00N 34°28' W 029°54'0 0.5 1021.4 23.9
2014-Sep-26 06:00N 34°28' W 029°53'0 0.1 1021.2 23.8
2014-Sep-26 05:00N 34°28' W 029°53'1 0.2 1021.0 23.9
2014-Sep-25 23:00N 34°28' W 029°51'1 0.9 1022.6 23.9
2014-Sep-25 22:00N 34°28' W 029°53'3 1.3 1022.4 23.9
2014-Sep-25 20:00N 34°26' W 029°52'0 0.1 1021.6 23.9
2014-Sep-25 18:00N 34°26' W 029°52'2 0.8 1021.2 24.0
2014-Sep-25 16:00N 34°24' W 029°51'1 1.3 1021.7 24.0
2014-Sep-25 15:00N 34°24' W 029°50'1 0.2 1022.0 24.0
2014-Sep-25 12:00N 34°23' W 029°49'1 0.6 1023.5 23.9
2014-Sep-25 11:00N 34°23' W 029°49'1 0.9 1023.4 23.9
2014-Sep-25 10:00N 34°23' W 029°48'1 0.3 1023.2 23.9
2014-Sep-25 07:00N 34°22' W 029°47'1 0.9 1022.2 23.9
2014-Sep-25 06:00N 34°22' W 029°46'0 0.4 1022.6 23.9
2014-Sep-25 05:00N 34°21' W 029°46'2 0.4 1022.8 23.9
2014-Sep-24 23:00N 34°22' W 029°44'1 0.9 1025.3 23.9
2014-Sep-24 22:00N 34°22' W 029°45'1 0.6 1025.3 23.9
2014-Sep-24 20:00N 34°21' W 029°44'0 0.1 1024.5 23.9
2014-Sep-24 19:00N 34°21' W 029°44'2 0.9 1024.4 23.9
2014-Sep-24 17:00N 34°19' W 029°43'   1024.7 24.0

Dump ship's entire track history